Topeka, KS (66611)

7:30 PM CST en Noviembre 26, 2014 (GMT -0600)
Knollwood | Change Station
CLOSE
Current Station
Estación meteorológica personal
Location: Topeka, KS
Altura: 978 ft
Estaciones meteorológicas cercanas

Alt 978 ft 39.02 °N, 95.70 °W | Updated 3 minutes ago

Nublado
Nublado
29.7 ° F
Sensación térmica 25 ° F
N
4.3
Viento Variable Viento desde Oeste

Hoy
Alta -- | Baja -- ° F
--% Posibilidad de precipitaciones
Ayer
Alta -- | Baja -- ° F
Precip. -- pul
7:17 AM 5:02 PM
Creciente, 24% visible
Presión 30.33 pul
Visibilidad 10.0 Millas
Nubes Nublado 2300 ft
Vientos helados 25 ° F
Punto de rocío 21 ° F
Humedad 70%
Precipitaciones 0.00 pul
Espesor de la nieve No disponible.
UV 0 de una escala de 12
Polen .10 de una escala de 12
Calidad del aire No disponible.
Flu Activity No disponible.
METAR KFOE 270053Z 32019G23KT 10SM OVC023 00/M06 A3030 RMK AO2 PK WND 32029/0011 SLP270 T00001056

More Conditions Fewer Conditions

Presión 30.33 pul
Visibilidad 10.0 Millas
Nubes Nublado 2300 ft
Vientos helados 25 ° F
Punto de rocío 21 ° F
Humedad 70%
Precipitaciones 0.00 pul
Espesor de la nieve No disponible.
UV 0 de una escala de 12
Polen .10 de una escala de 12
Calidad del aire No disponible.
Flu Activity No disponible.
METAR KFOE 270053Z 32019G23KT 10SM OVC023 00/M06 A3030 RMK AO2 PK WND 32029/0011 SLP270 T00001056

More Conditions Fewer Conditions

10-Day Weather Forecast

Almanac

Astronomía

Nov. 26, 2014 Salida Puesta
Hora real
Crepúsculo civil
Crepúsculo náutico
Crepúsculo astronómico
Luna
Horas de luz
Horas de luz
Tomorrow will be .
, % of the Moon is Illuminated

Extremos de hoy

Máximos del estado Bajos del estado

Community

WunderPhotos

Upload Photos

1,773,938 ¡fotos cargadas!

WunderBlogs® & News

Nearby

Calidad del aire

  Calidad del aire Índice AQ Contaminante
Not available.

Grosos de nieve

Estación Profundido Altura

Actividad de terremotos

Ciudad Distance Mag. Tiempo y dato
Magnitud mínima muestra es 2,5.

Temperaturas de aguas costeras

Lugar Temperatura

Estaciones meteorológicas cercanas